sensor_id;sensor_type;location;lat;lon;timestamp;temperature;humidity
23671;DHT22;12012;51.998;7.614;2022-08-19T00:01:38;18.50;99.90
23671;DHT22;12012;51.998;7.614;2022-08-19T00:04:07;18.50;99.90
23671;DHT22;12012;51.998;7.614;2022-08-19T00:06:33;18.50;1.00
23671;DHT22;12012;51.998;7.614;2022-08-19T00:09:00;18.50;99.90
23671;DHT22;12012;51.998;7.614;2022-08-19T00:11:27;18.50;99.90
23671;DHT22;12012;51.998;7.614;2022-08-19T00:13:54;18.50;1.00
23671;DHT22;12012;51.998;7.614;2022-08-19T00:16:20;18.50;1.00
23671;DHT22;12012;51.998;7.614;2022-08-19T00:18:47;18.40;99.90
23671;DHT22;12012;51.998;7.614;2022-08-19T00:21:13;18.40;99.90
23671;DHT22;12012;51.998;7.614;2022-08-19T00:23:39;18.40;1.00
23671;DHT22;12012;51.998;7.614;2022-08-19T00:26:06;18.40;99.90
23671;DHT22;12012;51.998;7.614;2022-08-19T00:28:33;18.30;99.90
23671;DHT22;12012;51.998;7.614;2022-08-19T00:31:01;18.30;99.90
23671;DHT22;12012;51.998;7.614;2022-08-19T00:33:28;18.30;99.90
23671;DHT22;12012;51.998;7.614;2022-08-19T00:35:58;18.30;1.00
23671;DHT22;12012;51.998;7.614;2022-08-19T00:38:23;18.30;1.00
23671;DHT22;12012;51.998;7.614;2022-08-19T00:40:49;18.30;89.90
23671;DHT22;12012;51.998;7.614;2022-08-19T00:43:19;18.20;99.90
23671;DHT22;12012;51.998;7.614;2022-08-19T00:45:46;18.20;99.90
23671;DHT22;12012;51.998;7.614;2022-08-19T00:48:13;18.20;99.90
23671;DHT22;12012;51.998;7.614;2022-08-19T00:50:40;18.20;16.00
23671;DHT22;12012;51.998;7.614;2022-08-19T00:53:10;18.10;78.10
23671;DHT22;12012;51.998;7.614;2022-08-19T00:55:37;18.10;1.00
23671;DHT22;12012;51.998;7.614;2022-08-19T00:58:07;18.10;1.00
23671;DHT22;12012;51.998;7.614;2022-08-19T01:00:35;18.10;1.00
23671;DHT22;12012;51.998;7.614;2022-08-19T01:03:07;18.10;1.00
23671;DHT22;12012;51.998;7.614;2022-08-19T01:05:33;18.10;1.00
23671;DHT22;12012;51.998;7.614;2022-08-19T01:08:02;18.00;1.00
23671;DHT22;12012;51.998;7.614;2022-08-19T01:10:31;18.00;99.90
23671;DHT22;12012;51.998;7.614;2022-08-19T01:12:59;18.00;99.90
23671;DHT22;12012;51.998;7.614;2022-08-19T01:15:34;18.00;99.90
23671;DHT22;12012;51.998;7.614;2022-08-19T01:18:06;18.00;99.90
23671;DHT22;12012;51.998;7.614;2022-08-19T01:20:32;17.90;99.90
23671;DHT22;12012;51.998;7.614;2022-08-19T01:23:00;17.90;99.90
23671;DHT22;12012;51.998;7.614;2022-08-19T01:25:41;17.90;99.90
23671;DHT22;12012;51.998;7.614;2022-08-19T01:28:16;17.90;99.90
23671;DHT22;12012;51.998;7.614;2022-08-19T01:30:43;17.90;1.00
23671;DHT22;12012;51.998;7.614;2022-08-19T01:33:09;17.80;1.00
23671;DHT22;12012;51.998;7.614;2022-08-19T01:35:35;17.80;1.00
23671;DHT22;12012;51.998;7.614;2022-08-19T01:38:04;17.80;1.00
23671;DHT22;12012;51.998;7.614;2022-08-19T01:40:35;17.80;99.90
23671;DHT22;12012;51.998;7.614;2022-08-19T01:43:02;17.80;99.90
23671;DHT22;12012;51.998;7.614;2022-08-19T01:45:30;17.70;99.90
23671;DHT22;12012;51.998;7.614;2022-08-19T01:47:58;17.70;99.90
23671;DHT22;12012;51.998;7.614;2022-08-19T01:50:24;17.60;1.00
23671;DHT22;12012;51.998;7.614;2022-08-19T01:52:51;17.60;58.90
23671;DHT22;12012;51.998;7.614;2022-08-19T01:55:19;17.60;99.90
23671;DHT22;12012;51.998;7.614;2022-08-19T01:57:52;17.60;99.90
23671;DHT22;12012;51.998;7.614;2022-08-19T02:00:20;17.60;99.90
23671;DHT22;12012;51.998;7.614;2022-08-19T02:02:47;17.60;99.90
23671;DHT22;12012;51.998;7.614;2022-08-19T02:05:13;17.60;1.00
23671;DHT22;12012;51.998;7.614;2022-08-19T02:07:40;17.50;99.90
23671;DHT22;12012;51.998;7.614;2022-08-19T02:10:10;17.50;99.90
23671;DHT22;12012;51.998;7.614;2022-08-19T02:12:36;17.50;99.90
23671;DHT22;12012;51.998;7.614;2022-08-19T02:15:02;17.50;1.00
23671;DHT22;12012;51.998;7.614;2022-08-19T02:17:29;17.50;1.00
23671;DHT22;12012;51.998;7.614;2022-08-19T02:19:55;17.40;1.00
23671;DHT22;12012;51.998;7.614;2022-08-19T02:22:22;17.40;1.00
23671;DHT22;12012;51.998;7.614;2022-08-19T02:24:48;17.40;1.00
23671;DHT22;12012;51.998;7.614;2022-08-19T02:27:14;17.40;99.90
23671;DHT22;12012;51.998;7.614;2022-08-19T02:29:40;17.40;99.90
23671;DHT22;12012;51.998;7.614;2022-08-19T02:32:07;17.40;99.90
23671;DHT22;12012;51.998;7.614;2022-08-19T02:34:33;17.30;99.90
23671;DHT22;12012;51.998;7.614;2022-08-19T02:36:59;17.30;99.90
23671;DHT22;12012;51.998;7.614;2022-08-19T02:39:25;17.30;99.90
23671;DHT22;12012;51.998;7.614;2022-08-19T02:41:52;17.20;99.90
23671;DHT22;12012;51.998;7.614;2022-08-19T02:44:18;17.20;99.90
23671;DHT22;12012;51.998;7.614;2022-08-19T02:46:46;17.20;99.90
23671;DHT22;12012;51.998;7.614;2022-08-19T02:49:12;17.20;99.90
23671;DHT22;12012;51.998;7.614;2022-08-19T02:51:43;17.10;99.90
23671;DHT22;12012;51.998;7.614;2022-08-19T02:54:10;17.10;99.90
23671;DHT22;12012;51.998;7.614;2022-08-19T02:56:38;17.10;99.90
23671;DHT22;12012;51.998;7.614;2022-08-19T02:59:05;17.10;99.90
23671;DHT22;12012;51.998;7.614;2022-08-19T03:01:36;17.10;99.90
23671;DHT22;12012;51.998;7.614;2022-08-19T03:04:04;17.10;99.90
23671;DHT22;12012;51.998;7.614;2022-08-19T03:06:31;17.10;99.90
23671;DHT22;12012;51.998;7.614;2022-08-19T03:08:57;17.10;99.90
23671;DHT22;12012;51.998;7.614;2022-08-19T03:11:26;17.10;99.90
23671;DHT22;12012;51.998;7.614;2022-08-19T03:13:52;17.10;99.90
23671;DHT22;12012;51.998;7.614;2022-08-19T03:16:20;17.20;99.90
23671;DHT22;12012;51.998;7.614;2022-08-19T03:18:46;17.10;99.90
23671;DHT22;12012;51.998;7.614;2022-08-19T03:21:27;17.10;99.90
23671;DHT22;12012;51.998;7.614;2022-08-19T03:23:55;17.10;99.90
23671;DHT22;12012;51.998;7.614;2022-08-19T03:26:20;17.10;99.90
23671;DHT22;12012;51.998;7.614;2022-08-19T03:28:46;17.10;1.00
23671;DHT22;12012;51.998;7.614;2022-08-19T03:31:18;17.10;1.00
23671;DHT22;12012;51.998;7.614;2022-08-19T03:33:44;17.10;99.90
23671;DHT22;12012;51.998;7.614;2022-08-19T03:36:16;17.10;99.90
23671;DHT22;12012;51.998;7.614;2022-08-19T03:38:45;17.10;99.90
23671;DHT22;12012;51.998;7.614;2022-08-19T03:41:15;17.10;99.90
23671;DHT22;12012;51.998;7.614;2022-08-19T03:43:42;17.00;99.90
23671;DHT22;12012;51.998;7.614;2022-08-19T03:46:11;17.10;1.00
23671;DHT22;12012;51.998;7.614;2022-08-19T03:48:39;17.10;1.00
23671;DHT22;12012;51.998;7.614;2022-08-19T03:51:07;17.00;99.90
23671;DHT22;12012;51.998;7.614;2022-08-19T03:53:34;17.00;1.00
23671;DHT22;12012;51.998;7.614;2022-08-19T03:56:00;17.00;1.00
23671;DHT22;12012;51.998;7.614;2022-08-19T03:58:28;17.00;1.00
23671;DHT22;12012;51.998;7.614;2022-08-19T04:00:58;17.00;1.00
23671;DHT22;12012;51.998;7.614;2022-08-19T04:03:24;17.00;1.00
23671;DHT22;12012;51.998;7.614;2022-08-19T04:05:50;17.00;1.00
23671;DHT22;12012;51.998;7.614;2022-08-19T04:08:16;17.00;1.00
23671;DHT22;12012;51.998;7.614;2022-08-19T04:10:48;17.00;1.00
23671;DHT22;12012;51.998;7.614;2022-08-19T04:13:16;17.00;1.00
23671;DHT22;12012;51.998;7.614;2022-08-19T04:15:44;17.00;1.00
23671;DHT22;12012;51.998;7.614;2022-08-19T04:18:11;17.00;1.00
23671;DHT22;12012;51.998;7.614;2022-08-19T04:20:46;17.00;1.00
23671;DHT22;12012;51.998;7.614;2022-08-19T04:23:13;17.00;99.90
23671;DHT22;12012;51.998;7.614;2022-08-19T04:25:41;17.00;1.00
23671;DHT22;12012;51.998;7.614;2022-08-19T04:28:08;17.00;99.90
23671;DHT22;12012;51.998;7.614;2022-08-19T04:30:43;17.00;99.90
23671;DHT22;12012;51.998;7.614;2022-08-19T04:33:09;17.00;99.90
23671;DHT22;12012;51.998;7.614;2022-08-19T04:35:40;17.00;1.00
23671;DHT22;12012;51.998;7.614;2022-08-19T04:38:07;17.00;1.00
23671;DHT22;12012;51.998;7.614;2022-08-19T04:40:34;17.00;99.90
23671;DHT22;12012;51.998;7.614;2022-08-19T04:43:22;17.00;1.00
23671;DHT22;12012;51.998;7.614;2022-08-19T04:45:48;17.00;1.00
23671;DHT22;12012;51.998;7.614;2022-08-19T04:48:13;17.00;1.00
23671;DHT22;12012;51.998;7.614;2022-08-19T04:50:41;17.00;99.90
23671;DHT22;12012;51.998;7.614;2022-08-19T04:53:07;17.00;99.90
23671;DHT22;12012;51.998;7.614;2022-08-19T04:55:33;17.00;99.90
23671;DHT22;12012;51.998;7.614;2022-08-19T04:58:01;17.00;1.00
23671;DHT22;12012;51.998;7.614;2022-08-19T05:00:27;17.00;1.00
23671;DHT22;12012;51.998;7.614;2022-08-19T05:02:54;17.10;1.00
23671;DHT22;12012;51.998;7.614;2022-08-19T05:05:20;17.10;1.00
23671;DHT22;12012;51.998;7.614;2022-08-19T05:07:46;17.10;1.00
23671;DHT22;12012;51.998;7.614;2022-08-19T05:10:11;17.00;1.00
23671;DHT22;12012;51.998;7.614;2022-08-19T05:12:38;17.10;1.00
23671;DHT22;12012;51.998;7.614;2022-08-19T05:15:05;17.10;99.90
23671;DHT22;12012;51.998;7.614;2022-08-19T05:17:31;17.10;99.90
23671;DHT22;12012;51.998;7.614;2022-08-19T05:19:57;17.10;1.00
23671;DHT22;12012;51.998;7.614;2022-08-19T05:22:42;17.20;1.00
23671;DHT22;12012;51.998;7.614;2022-08-19T05:25:13;17.20;1.00
23671;DHT22;12012;51.998;7.614;2022-08-19T05:27:39;17.20;99.90
23671;DHT22;12012;51.998;7.614;2022-08-19T05:30:05;17.30;99.90
23671;DHT22;12012;51.998;7.614;2022-08-19T05:32:31;17.30;99.90
23671;DHT22;12012;51.998;7.614;2022-08-19T05:34:57;17.40;99.90
23671;DHT22;12012;51.998;7.614;2022-08-19T05:37:22;17.50;99.90
23671;DHT22;12012;51.998;7.614;2022-08-19T05:39:48;17.50;99.90
23671;DHT22;12012;51.998;7.614;2022-08-19T05:42:14;17.60;99.90
23671;DHT22;12012;51.998;7.614;2022-08-19T05:44:43;17.70;99.90
23671;DHT22;12012;51.998;7.614;2022-08-19T05:47:10;17.80;99.90
23671;DHT22;12012;51.998;7.614;2022-08-19T05:49:36;17.90;99.90
23671;DHT22;12012;51.998;7.614;2022-08-19T05:52:08;18.00;99.90
23671;DHT22;12012;51.998;7.614;2022-08-19T05:54:36;18.10;99.90
23671;DHT22;12012;51.998;7.614;2022-08-19T05:57:03;18.20;99.90
23671;DHT22;12012;51.998;7.614;2022-08-19T05:59:28;18.40;99.90
23671;DHT22;12012;51.998;7.614;2022-08-19T06:01:54;18.50;50.30
23671;DHT22;12012;51.998;7.614;2022-08-19T06:04:21;18.70;1.00
23671;DHT22;12012;51.998;7.614;2022-08-19T06:06:49;18.90;1.00
23671;DHT22;12012;51.998;7.614;2022-08-19T06:09:17;19.10;1.00
23671;DHT22;12012;51.998;7.614;2022-08-19T06:14:14;19.40;99.90
23671;DHT22;12012;51.998;7.614;2022-08-19T06:16:41;19.60;99.90
23671;DHT22;12012;51.998;7.614;2022-08-19T06:19:10;19.70;25.20
23671;DHT22;12012;51.998;7.614;2022-08-19T06:21:37;19.90;1.00
23671;DHT22;12012;51.998;7.614;2022-08-19T06:24:05;20.00;1.00
23671;DHT22;12012;51.998;7.614;2022-08-19T06:26:33;20.10;99.90
23671;DHT22;12012;51.998;7.614;2022-08-19T06:29:00;20.20;1.00
23671;DHT22;12012;51.998;7.614;2022-08-19T06:31:28;20.30;99.90
23671;DHT22;12012;51.998;7.614;2022-08-19T06:33:54;20.30;1.00
23671;DHT22;12012;51.998;7.614;2022-08-19T06:36:22;20.40;1.00
23671;DHT22;12012;51.998;7.614;2022-08-19T06:38:50;20.40;1.00
23671;DHT22;12012;51.998;7.614;2022-08-19T06:41:16;20.40;1.00
23671;DHT22;12012;51.998;7.614;2022-08-19T06:43:42;20.50;99.90
23671;DHT22;12012;51.998;7.614;2022-08-19T06:46:16;20.60;99.90
23671;DHT22;12012;51.998;7.614;2022-08-19T06:48:42;20.70;99.90
23671;DHT22;12012;51.998;7.614;2022-08-19T06:51:08;20.80;99.90
23671;DHT22;12012;51.998;7.614;2022-08-19T06:53:34;20.80;99.90
23671;DHT22;12012;51.998;7.614;2022-08-19T06:56:00;20.90;1.00
23671;DHT22;12012;51.998;7.614;2022-08-19T06:58:30;20.90;56.60
23671;DHT22;12012;51.998;7.614;2022-08-19T07:01:02;21.00;1.00
23671;DHT22;12012;51.998;7.614;2022-08-19T07:03:33;21.10;1.00
23671;DHT22;12012;51.998;7.614;2022-08-19T07:06:05;21.20;99.90
23671;DHT22;12012;51.998;7.614;2022-08-19T07:08:32;21.30;1.00
23671;DHT22;12012;51.998;7.614;2022-08-19T07:10:57;21.40;99.90
23671;DHT22;12012;51.998;7.614;2022-08-19T07:13:24;21.60;99.90
23671;DHT22;12012;51.998;7.614;2022-08-19T07:15:50;21.70;16.00
23671;DHT22;12012;51.998;7.614;2022-08-19T07:18:19;21.90;99.90
23671;DHT22;12012;51.998;7.614;2022-08-19T07:20:45;22.00;99.90
23671;DHT22;12012;51.998;7.614;2022-08-19T07:23:12;22.10;1.00
23671;DHT22;12012;51.998;7.614;2022-08-19T07:25:38;22.20;99.90
23671;DHT22;12012;51.998;7.614;2022-08-19T07:28:04;22.30;85.70
23671;DHT22;12012;51.998;7.614;2022-08-19T07:30:30;22.50;15.00
23671;DHT22;12012;51.998;7.614;2022-08-19T07:32:56;22.60;99.90
23671;DHT22;12012;51.998;7.614;2022-08-19T07:35:22;22.70;99.90
23671;DHT22;12012;51.998;7.614;2022-08-19T07:37:49;22.80;99.90
23671;DHT22;12012;51.998;7.614;2022-08-19T07:40:14;23.00;1.00
23671;DHT22;12012;51.998;7.614;2022-08-19T07:42:41;23.10;1.00
23671;DHT22;12012;51.998;7.614;2022-08-19T07:45:07;23.30;1.00
23671;DHT22;12012;51.998;7.614;2022-08-19T07:47:33;23.50;99.90
23671;DHT22;12012;51.998;7.614;2022-08-19T07:49:59;23.70;1.00
23671;DHT22;12012;51.998;7.614;2022-08-19T07:52:25;23.80;99.90
23671;DHT22;12012;51.998;7.614;2022-08-19T07:54:50;23.90;99.90
23671;DHT22;12012;51.998;7.614;2022-08-19T07:57:16;23.90;99.90
23671;DHT22;12012;51.998;7.614;2022-08-19T07:59:42;24.00;99.90
23671;DHT22;12012;51.998;7.614;2022-08-19T08:02:08;24.20;99.90
23671;DHT22;12012;51.998;7.614;2022-08-19T08:04:34;24.30;92.50
23671;DHT22;12012;51.998;7.614;2022-08-19T08:07:22;24.30;22.20
23671;DHT22;12012;51.998;7.614;2022-08-19T08:10:07;24.40;1.00
23671;DHT22;12012;51.998;7.614;2022-08-19T08:12:38;24.50;1.00
23671;DHT22;12012;51.998;7.614;2022-08-19T08:15:12;24.70;1.00
23671;DHT22;12012;51.998;7.614;2022-08-19T08:17:42;25.00;1.00
23671;DHT22;12012;51.998;7.614;2022-08-19T08:20:08;25.40;99.90
23671;DHT22;12012;51.998;7.614;2022-08-19T08:22:34;25.80;99.90
23671;DHT22;12012;51.998;7.614;2022-08-19T08:25:21;26.20;99.90
23671;DHT22;12012;51.998;7.614;2022-08-19T08:27:48;26.70;99.90
23671;DHT22;12012;51.998;7.614;2022-08-19T08:30:27;27.10;75.00
23671;DHT22;12012;51.998;7.614;2022-08-19T08:32:53;27.40;1.00
23671;DHT22;12012;51.998;7.614;2022-08-19T08:35:21;27.80;1.00
23671;DHT22;12012;51.998;7.614;2022-08-19T08:37:49;28.10;1.00
23671;DHT22;12012;51.998;7.614;2022-08-19T08:40:33;28.10;1.00
23671;DHT22;12012;51.998;7.614;2022-08-19T08:43:27;28.10;99.90
23671;DHT22;12012;51.998;7.614;2022-08-19T08:46:13;28.30;99.90
23671;DHT22;12012;51.998;7.614;2022-08-19T08:48:52;28.40;99.90
23671;DHT22;12012;51.998;7.614;2022-08-19T08:51:48;28.70;99.90
23671;DHT22;12012;51.998;7.614;2022-08-19T08:54:20;29.20;99.90
23671;DHT22;12012;51.998;7.614;2022-08-19T08:56:47;29.60;99.90
23671;DHT22;12012;51.998;7.614;2022-08-19T08:59:29;29.60;99.90
23671;DHT22;12012;51.998;7.614;2022-08-19T09:01:57;29.50;99.90
23671;DHT22;12012;51.998;7.614;2022-08-19T09:04:24;29.40;99.90
23671;DHT22;12012;51.998;7.614;2022-08-19T09:09:42;30.00;99.90
23671;DHT22;12012;51.998;7.614;2022-08-19T09:12:25;30.30;99.90
23671;DHT22;12012;51.998;7.614;2022-08-19T09:15:06;30.60;72.70
23671;DHT22;12012;51.998;7.614;2022-08-19T09:17:32;31.10;15.70
23671;DHT22;12012;51.998;7.614;2022-08-19T09:20:16;31.30;1.00
23671;DHT22;12012;51.998;7.614;2022-08-19T09:22:43;31.30;1.00
23671;DHT22;12012;51.998;7.614;2022-08-19T09:25:12;31.30;1.00
23671;DHT22;12012;51.998;7.614;2022-08-19T09:27:39;30.90;1.00
23671;DHT22;12012;51.998;7.614;2022-08-19T09:30:08;30.30;1.00
23671;DHT22;12012;51.998;7.614;2022-08-19T09:32:34;29.90;1.00
23671;DHT22;12012;51.998;7.614;2022-08-19T09:34:59;29.40;1.00
23671;DHT22;12012;51.998;7.614;2022-08-19T09:37:25;29.20;1.00
23671;DHT22;12012;51.998;7.614;2022-08-19T09:39:52;29.60;1.00
23671;DHT22;12012;51.998;7.614;2022-08-19T09:42:18;30.00;1.00
23671;DHT22;12012;51.998;7.614;2022-08-19T09:44:44;30.50;1.00
23671;DHT22;12012;51.998;7.614;2022-08-19T09:47:11;30.80;1.00
23671;DHT22;12012;51.998;7.614;2022-08-19T09:49:38;31.20;1.00
23671;DHT22;12012;51.998;7.614;2022-08-19T09:52:05;31.90;1.00
23671;DHT22;12012;51.998;7.614;2022-08-19T09:54:33;32.50;1.00
23671;DHT22;12012;51.998;7.614;2022-08-19T09:56:59;33.20;1.00
23671;DHT22;12012;51.998;7.614;2022-08-19T09:59:28;33.60;1.00
23671;DHT22;12012;51.998;7.614;2022-08-19T10:01:54;33.90;1.00
23671;DHT22;12012;51.998;7.614;2022-08-19T10:04:20;34.30;1.00
23671;DHT22;12012;51.998;7.614;2022-08-19T10:06:47;34.50;1.00
23671;DHT22;12012;51.998;7.614;2022-08-19T10:09:15;34.40;1.00
23671;DHT22;12012;51.998;7.614;2022-08-19T10:11:43;34.00;1.00
23671;DHT22;12012;51.998;7.614;2022-08-19T10:14:13;33.70;1.00
23671;DHT22;12012;51.998;7.614;2022-08-19T10:16:39;33.70;1.00
23671;DHT22;12012;51.998;7.614;2022-08-19T10:19:06;33.90;1.00
23671;DHT22;12012;51.998;7.614;2022-08-19T10:21:33;34.40;1.00
23671;DHT22;12012;51.998;7.614;2022-08-19T10:24:01;34.40;1.00
23671;DHT22;12012;51.998;7.614;2022-08-19T10:26:34;34.00;1.00
23671;DHT22;12012;51.998;7.614;2022-08-19T10:29:01;33.50;1.00
23671;DHT22;12012;51.998;7.614;2022-08-19T10:31:29;33.10;1.00
23671;DHT22;12012;51.998;7.614;2022-08-19T10:33:56;33.20;1.00
23671;DHT22;12012;51.998;7.614;2022-08-19T10:36:30;33.30;1.00
23671;DHT22;12012;51.998;7.614;2022-08-19T10:38:58;33.30;1.00
23671;DHT22;12012;51.998;7.614;2022-08-19T10:41:32;33.90;1.00
23671;DHT22;12012;51.998;7.614;2022-08-19T10:44:03;35.00;1.00
23671;DHT22;12012;51.998;7.614;2022-08-19T10:46:30;35.30;1.00
23671;DHT22;12012;51.998;7.614;2022-08-19T10:48:58;35.20;1.00
23671;DHT22;12012;51.998;7.614;2022-08-19T10:51:24;34.50;1.00
23671;DHT22;12012;51.998;7.614;2022-08-19T10:54:08;34.30;1.00
23671;DHT22;12012;51.998;7.614;2022-08-19T10:56:35;34.20;1.00
23671;DHT22;12012;51.998;7.614;2022-08-19T10:59:29;33.50;1.00
23671;DHT22;12012;51.998;7.614;2022-08-19T11:01:59;32.80;1.00
23671;DHT22;12012;51.998;7.614;2022-08-19T11:04:25;32.80;1.00
23671;DHT22;12012;51.998;7.614;2022-08-19T11:06:51;33.40;1.00
23671;DHT22;12012;51.998;7.614;2022-08-19T11:09:21;34.50;1.00
23671;DHT22;12012;51.998;7.614;2022-08-19T11:11:47;35.10;1.00
23671;DHT22;12012;51.998;7.614;2022-08-19T11:14:15;35.50;1.00
23671;DHT22;12012;51.998;7.614;2022-08-19T11:16:42;36.40;1.00
23671;DHT22;12012;51.998;7.614;2022-08-19T11:19:09;37.20;1.00
23671;DHT22;12012;51.998;7.614;2022-08-19T11:21:38;38.00;1.00
23671;DHT22;12012;51.998;7.614;2022-08-19T11:24:07;38.90;1.00
23671;DHT22;12012;51.998;7.614;2022-08-19T11:26:34;38.40;1.00
23671;DHT22;12012;51.998;7.614;2022-08-19T11:29:01;37.40;1.00
23671;DHT22;12012;51.998;7.614;2022-08-19T11:31:31;36.40;1.00
23671;DHT22;12012;51.998;7.614;2022-08-19T11:33:58;35.40;1.00
23671;DHT22;12012;51.998;7.614;2022-08-19T11:36:25;34.80;1.00
23671;DHT22;12012;51.998;7.614;2022-08-19T11:38:52;34.80;1.00
23671;DHT22;12012;51.998;7.614;2022-08-19T11:41:20;35.40;1.00
23671;DHT22;12012;51.998;7.614;2022-08-19T11:43:46;36.10;1.00
23671;DHT22;12012;51.998;7.614;2022-08-19T11:46:14;36.90;1.00
23671;DHT22;12012;51.998;7.614;2022-08-19T11:48:40;37.40;1.00
23671;DHT22;12012;51.998;7.614;2022-08-19T11:51:08;37.00;1.00
23671;DHT22;12012;51.998;7.614;2022-08-19T11:53:35;36.30;1.00
23671;DHT22;12012;51.998;7.614;2022-08-19T11:56:01;35.70;1.00
23671;DHT22;12012;51.998;7.614;2022-08-19T11:58:27;35.20;1.00
23671;DHT22;12012;51.998;7.614;2022-08-19T12:00:52;34.50;1.00
23671;DHT22;12012;51.998;7.614;2022-08-19T12:03:18;33.80;1.00
23671;DHT22;12012;51.998;7.614;2022-08-19T12:05:45;33.00;1.00
23671;DHT22;12012;51.998;7.614;2022-08-19T12:08:11;32.90;1.00
23671;DHT22;12012;51.998;7.614;2022-08-19T12:10:39;32.60;1.00
23671;DHT22;12012;51.998;7.614;2022-08-19T12:13:06;32.40;1.00
23671;DHT22;12012;51.998;7.614;2022-08-19T12:15:36;33.40;1.00
23671;DHT22;12012;51.998;7.614;2022-08-19T12:18:03;34.70;1.00
23671;DHT22;12012;51.998;7.614;2022-08-19T12:20:29;35.50;1.00
23671;DHT22;12012;51.998;7.614;2022-08-19T12:22:54;36.20;1.00
23671;DHT22;12012;51.998;7.614;2022-08-19T12:25:20;36.60;1.00
23671;DHT22;12012;51.998;7.614;2022-08-19T12:27:46;36.20;1.00
23671;DHT22;12012;51.998;7.614;2022-08-19T12:30:13;36.40;1.00
23671;DHT22;12012;51.998;7.614;2022-08-19T12:32:39;37.00;1.00
23671;DHT22;12012;51.998;7.614;2022-08-19T12:35:06;37.60;1.00
23671;DHT22;12012;51.998;7.614;2022-08-19T12:37:32;38.30;1.00
23671;DHT22;12012;51.998;7.614;2022-08-19T12:39:58;38.80;1.00
23671;DHT22;12012;51.998;7.614;2022-08-19T12:42:24;39.10;1.00
23671;DHT22;12012;51.998;7.614;2022-08-19T12:44:50;39.50;1.00
23671;DHT22;12012;51.998;7.614;2022-08-19T12:47:17;39.80;1.00
23671;DHT22;12012;51.998;7.614;2022-08-19T12:49:43;39.70;1.00
23671;DHT22;12012;51.998;7.614;2022-08-19T12:52:09;39.10;1.00
23671;DHT22;12012;51.998;7.614;2022-08-19T12:54:36;38.20;1.00
23671;DHT22;12012;51.998;7.614;2022-08-19T12:57:06;37.90;1.00
23671;DHT22;12012;51.998;7.614;2022-08-19T12:59:36;38.30;1.00
23671;DHT22;12012;51.998;7.614;2022-08-19T13:02:03;39.00;1.00
23671;DHT22;12012;51.998;7.614;2022-08-19T13:04:31;39.60;1.00
23671;DHT22;12012;51.998;7.614;2022-08-19T13:06:58;40.00;1.00
23671;DHT22;12012;51.998;7.614;2022-08-19T13:09:23;40.30;1.00
23671;DHT22;12012;51.998;7.614;2022-08-19T13:11:49;40.40;1.00
23671;DHT22;12012;51.998;7.614;2022-08-19T13:14:14;40.30;1.00
23671;DHT22;12012;51.998;7.614;2022-08-19T13:16:40;40.70;1.00
23671;DHT22;12012;51.998;7.614;2022-08-19T13:19:06;40.50;1.00
23671;DHT22;12012;51.998;7.614;2022-08-19T13:21:32;39.20;1.00
23671;DHT22;12012;51.998;7.614;2022-08-19T13:23:58;38.00;1.00
23671;DHT22;12012;51.998;7.614;2022-08-19T13:26:24;37.80;1.00
23671;DHT22;12012;51.998;7.614;2022-08-19T13:28:50;37.70;1.00
23671;DHT22;12012;51.998;7.614;2022-08-19T13:31:40;36.80;1.00
23671;DHT22;12012;51.998;7.614;2022-08-19T13:34:32;36.50;1.00
23671;DHT22;12012;51.998;7.614;2022-08-19T13:36:59;36.60;1.00
23671;DHT22;12012;51.998;7.614;2022-08-19T13:39:25;36.40;1.00
23671;DHT22;12012;51.998;7.614;2022-08-19T13:41:51;35.90;1.00
23671;DHT22;12012;51.998;7.614;2022-08-19T13:44:18;35.00;1.00
23671;DHT22;12012;51.998;7.614;2022-08-19T13:46:44;34.30;1.00
23671;DHT22;12012;51.998;7.614;2022-08-19T13:49:12;33.90;1.00
23671;DHT22;12012;51.998;7.614;2022-08-19T13:51:42;33.60;1.00
23671;DHT22;12012;51.998;7.614;2022-08-19T13:54:08;34.50;1.00
23671;DHT22;12012;51.998;7.614;2022-08-19T13:56:39;35.60;1.00
23671;DHT22;12012;51.998;7.614;2022-08-19T13:59:05;36.40;1.00
23671;DHT22;12012;51.998;7.614;2022-08-19T14:01:31;36.60;1.00
23671;DHT22;12012;51.998;7.614;2022-08-19T14:03:56;36.10;1.00
23671;DHT22;12012;51.998;7.614;2022-08-19T14:06:22;35.50;1.00
23671;DHT22;12012;51.998;7.614;2022-08-19T14:08:48;35.00;1.00
23671;DHT22;12012;51.998;7.614;2022-08-19T14:11:14;35.00;1.00
23671;DHT22;12012;51.998;7.614;2022-08-19T14:13:40;35.60;1.00
23671;DHT22;12012;51.998;7.614;2022-08-19T14:16:10;36.20;1.00
23671;DHT22;12012;51.998;7.614;2022-08-19T14:18:36;36.80;1.00
23671;DHT22;12012;51.998;7.614;2022-08-19T14:21:03;37.40;1.00
23671;DHT22;12012;51.998;7.614;2022-08-19T14:23:30;37.90;1.00
23671;DHT22;12012;51.998;7.614;2022-08-19T14:26:12;38.30;1.00
23671;DHT22;12012;51.998;7.614;2022-08-19T14:28:39;38.50;1.00
23671;DHT22;12012;51.998;7.614;2022-08-19T14:31:14;38.70;1.00
23671;DHT22;12012;51.998;7.614;2022-08-19T14:33:44;38.70;1.00
23671;DHT22;12012;51.998;7.614;2022-08-19T14:36:09;38.60;1.00
23671;DHT22;12012;51.998;7.614;2022-08-19T14:38:35;38.00;1.00
23671;DHT22;12012;51.998;7.614;2022-08-19T14:41:10;37.20;1.00
23671;DHT22;12012;51.998;7.614;2022-08-19T14:43:36;36.50;1.00
23671;DHT22;12012;51.998;7.614;2022-08-19T14:46:02;35.90;1.00
23671;DHT22;12012;51.998;7.614;2022-08-19T14:48:27;35.40;1.00
23671;DHT22;12012;51.998;7.614;2022-08-19T14:50:53;34.80;1.00
23671;DHT22;12012;51.998;7.614;2022-08-19T14:53:19;34.30;1.00
23671;DHT22;12012;51.998;7.614;2022-08-19T14:55:46;33.70;1.00
23671;DHT22;12012;51.998;7.614;2022-08-19T14:58:12;33.30;1.00
23671;DHT22;12012;51.998;7.614;2022-08-19T15:00:38;32.90;1.00
23671;DHT22;12012;51.998;7.614;2022-08-19T15:03:04;32.40;1.00
23671;DHT22;12012;51.998;7.614;2022-08-19T15:05:29;32.10;1.00
23671;DHT22;12012;51.998;7.614;2022-08-19T15:07:55;31.80;1.00
23671;DHT22;12012;51.998;7.614;2022-08-19T15:10:22;31.40;1.00
23671;DHT22;12012;51.998;7.614;2022-08-19T15:12:49;31.10;1.00
23671;DHT22;12012;51.998;7.614;2022-08-19T15:15:15;30.90;1.00
23671;DHT22;12012;51.998;7.614;2022-08-19T15:17:43;30.70;1.00
23671;DHT22;12012;51.998;7.614;2022-08-19T15:20:11;30.60;1.00
23671;DHT22;12012;51.998;7.614;2022-08-19T15:22:38;30.40;1.00
23671;DHT22;12012;51.998;7.614;2022-08-19T15:25:05;30.30;1.00
23671;DHT22;12012;51.998;7.614;2022-08-19T15:27:32;30.20;1.00
23671;DHT22;12012;51.998;7.614;2022-08-19T15:29:57;30.00;1.00
23671;DHT22;12012;51.998;7.614;2022-08-19T15:32:23;29.90;1.00
23671;DHT22;12012;51.998;7.614;2022-08-19T15:34:52;29.70;1.00
23671;DHT22;12012;51.998;7.614;2022-08-19T15:37:18;29.60;1.00
23671;DHT22;12012;51.998;7.614;2022-08-19T15:39:44;29.50;1.00
23671;DHT22;12012;51.998;7.614;2022-08-19T15:42:11;29.30;1.00
23671;DHT22;12012;51.998;7.614;2022-08-19T15:44:36;29.20;1.00
23671;DHT22;12012;51.998;7.614;2022-08-19T15:47:02;29.20;1.00
23671;DHT22;12012;51.998;7.614;2022-08-19T15:49:28;29.10;1.00
23671;DHT22;12012;51.998;7.614;2022-08-19T15:51:53;29.00;1.00